Logan - 24 Hour Table
Date & TimeSolar
Radiation
(W/m²)
Wind
Speed
(mph)
Wind
Direction
(degrees)
Air
Temperature
(°F)
Relative
Humidity
(%)
Precipitation
(inches)
Barometric
Pressure
(inHg)
2018/12/11 20:00 0 0.5 85 27.2 84 0.00 30.18
2018/12/11 19:00 0 0.5 62 28.3 81 0.00 30.19
2018/12/11 18:00 0 1.0 35 29.3 80 0.00 30.20
2018/12/11 17:00 22 0.7 18 30.6 75 0.00 30.20
2018/12/11 16:00 99 1.6 350 31.6 76 0.00 30.20
2018/12/11 15:00 228 2.4 350 32.8 74 0.00 30.22
2018/12/11 14:00 424 1.4 301 33.5 66 0.00 30.23
2018/12/11 13:00 487 1.4 231 31.7 74 0.00 30.23
2018/12/11 12:00 215 0.7 271 31.0 77 0.00 30.26
2018/12/11 11:00 101 0.3 346 29.3 79 0.00 30.28
2018/12/11 10:00 56 0.3 311 26.9 82 0.00 30.29
2018/12/11 09:00 18 0.4 264 24.8 91 0.00 30.28
2018/12/11 08:00 0 0.4 277 24.8 93 0.00 30.27
2018/12/11 07:00 0 0.6 174 24.8 90 0.00 30.27
2018/12/11 06:00 0 0.8 217 24.7 95 0.00 30.27
2018/12/11 05:00 0 0.2 231 24.5 95 0.00 30.26
2018/12/11 04:00 0 0.6 233 23.3 96 0.00 30.26
2018/12/11 03:00 0 1.4 251 23.8 97 0.00 30.26
2018/12/11 02:00 0 1.2 131 24.0 95 0.00 30.24
2018/12/11 01:00 0 1.3 229 22.8 97 0.00 30.24
2018/12/11 00:00 0 0.9 220 24.1 95 0.00 30.21
2018/12/10 23:00 0 1.0 43 23.7 95 0.00 30.21
2018/12/10 22:00 0 1.0 26 24.3 94 0.00 30.21
2018/12/10 21:00 0 1.1 248 24.0 96 0.00 30.19